createdAt,value
2019-06-27T00:02:12.966Z,26.20
2019-06-27T00:04:40.072Z,26.20
2019-06-27T00:07:07.118Z,26.20
2019-06-27T00:09:34.225Z,26.10
2019-06-27T00:12:01.418Z,26.10
2019-06-27T00:14:28.729Z,26.00
2019-06-27T00:16:55.762Z,26.00
2019-06-27T00:19:22.775Z,26.00
2019-06-27T00:21:50.150Z,26.00
2019-06-27T00:24:17.429Z,25.90
2019-06-27T00:26:56.769Z,25.80
2019-06-27T00:29:14.366Z,25.80
2019-06-27T00:31:41.812Z,25.80
2019-06-27T00:34:09.438Z,25.80
2019-06-27T00:36:36.742Z,25.70
2019-06-27T00:39:05.114Z,25.70
2019-06-27T00:41:32.114Z,25.60
2019-06-27T00:43:59.546Z,25.50
2019-06-27T00:46:26.934Z,25.50
2019-06-27T00:48:53.946Z,25.40
2019-06-27T00:51:21.218Z,25.40
2019-06-27T00:53:48.577Z,25.40
2019-06-27T00:56:15.779Z,25.40
2019-06-27T00:58:42.854Z,25.40
2019-06-27T01:01:10.828Z,25.50
2019-06-27T01:03:37.938Z,25.40
2019-06-27T01:06:05.171Z,25.30
2019-06-27T01:08:32.425Z,25.30
2019-06-27T01:11:00.038Z,25.20
2019-06-27T01:13:27.418Z,25.20
2019-06-27T01:15:54.530Z,25.40
2019-06-27T01:18:21.674Z,25.20
2019-06-27T01:20:48.841Z,25.20
2019-06-27T01:23:16.093Z,25.20
2019-06-27T01:25:43.317Z,25.20
2019-06-27T01:28:10.328Z,25.20
2019-06-27T01:30:37.540Z,25.10
2019-06-27T01:33:04.846Z,25.10
2019-06-27T01:35:32.291Z,25.10
2019-06-27T01:37:59.461Z,25.10
2019-06-27T01:40:27.023Z,25.10
2019-06-27T01:42:54.769Z,25.00
2019-06-27T01:45:30.461Z,25.00
2019-06-27T01:47:57.698Z,25.00
2019-06-27T01:50:25.222Z,25.00
2019-06-27T01:52:52.610Z,24.90
2019-06-27T01:55:19.775Z,24.90
2019-06-27T01:57:47.469Z,24.90
2019-06-27T02:00:17.851Z,24.90
2019-06-27T02:02:45.121Z,24.90
2019-06-27T02:05:12.653Z,24.90
2019-06-27T02:07:40.069Z,24.80
2019-06-27T02:10:07.718Z,24.80
2019-06-27T02:12:35.189Z,24.80
2019-06-27T02:15:02.501Z,24.80
2019-06-27T02:17:29.912Z,24.80
2019-06-27T02:19:56.905Z,24.80
2019-06-27T02:22:24.161Z,24.80
2019-06-27T02:24:51.960Z,24.80
2019-06-27T02:27:19.207Z,24.70
2019-06-27T02:29:46.597Z,24.90
2019-06-27T02:32:13.613Z,24.70
2019-06-27T02:34:40.945Z,24.70
2019-06-27T02:37:08.559Z,24.70
2019-06-27T02:39:36.346Z,24.70
2019-06-27T02:42:03.659Z,24.70
2019-06-27T02:44:31.370Z,24.60
2019-06-27T02:46:58.476Z,24.60
2019-06-27T02:49:25.930Z,24.60
2019-06-27T02:51:53.255Z,24.50
2019-06-27T02:54:20.623Z,24.50
2019-06-27T02:56:47.904Z,24.60
2019-06-27T02:59:15.527Z,24.50
2019-06-27T03:01:43.467Z,24.50
2019-06-27T03:04:11.065Z,24.50
2019-06-27T03:06:38.723Z,24.40
2019-06-27T03:09:06.183Z,24.50
2019-06-27T03:11:33.435Z,24.40
2019-06-27T03:14:01.035Z,24.40
2019-06-27T03:16:28.210Z,24.40
2019-06-27T03:18:55.590Z,24.30
2019-06-27T03:21:22.775Z,24.40
2019-06-27T03:23:50.389Z,24.30
2019-06-27T03:26:17.773Z,24.50
2019-06-27T03:28:52.944Z,24.30
2019-06-27T03:31:14.571Z,24.30
2019-06-27T03:33:42.293Z,24.30
2019-06-27T03:36:09.600Z,24.20
2019-06-27T03:38:37.456Z,24.20
2019-06-27T03:41:04.821Z,24.20
2019-06-27T03:43:32.526Z,24.20
2019-06-27T03:46:00.031Z,24.20
2019-06-27T03:48:28.450Z,24.20
2019-06-27T03:50:56.955Z,24.20
2019-06-27T03:53:24.700Z,24.10
2019-06-27T03:55:52.498Z,24.10
2019-06-27T03:58:20.128Z,24.10
2019-06-27T04:00:47.963Z,24.10
2019-06-27T04:03:15.234Z,24.10
2019-06-27T04:05:43.301Z,24.10
2019-06-27T04:08:10.703Z,24.10
2019-06-27T04:10:38.293Z,24.10
2019-06-27T04:13:05.867Z,24.00
2019-06-27T04:15:33.369Z,24.10
2019-06-27T04:18:01.238Z,24.10
2019-06-27T04:20:29.044Z,24.10
2019-06-27T04:22:56.477Z,24.10
2019-06-27T04:25:24.429Z,24.10
2019-06-27T04:27:52.283Z,24.10
2019-06-27T04:30:20.208Z,24.10
2019-06-27T04:32:48.890Z,24.10
2019-06-27T04:35:16.138Z,24.10
2019-06-27T04:37:43.452Z,24.10
2019-06-27T04:40:11.331Z,24.10
2019-06-27T04:42:40.390Z,24.10
2019-06-27T04:45:07.941Z,24.10
2019-06-27T04:47:36.328Z,24.10
2019-06-27T04:50:04.102Z,24.10
2019-06-27T04:52:31.269Z,24.10
2019-06-27T04:55:03.145Z,23.90
2019-06-27T04:57:28.512Z,24.10
2019-06-27T04:59:56.785Z,24.10
2019-06-27T05:02:30.399Z,24.20
2019-06-27T05:04:54.982Z,24.20
2019-06-27T05:07:23.314Z,24.20
2019-06-27T05:09:51.009Z,24.20
2019-06-27T05:12:18.629Z,24.30
2019-06-27T05:14:46.424Z,24.30
2019-06-27T05:17:14.581Z,24.30
2019-06-27T05:19:42.078Z,24.30
2019-06-27T05:22:09.362Z,24.30
2019-06-27T05:24:36.682Z,24.30
2019-06-27T05:27:04.478Z,24.40
2019-06-27T05:29:31.743Z,24.30
2019-06-27T05:32:01.047Z,24.40
2019-06-27T05:34:29.234Z,24.30
2019-06-27T05:39:42.452Z,24.30
2019-06-27T05:42:09.987Z,24.30
2019-06-27T05:44:38.297Z,24.30
2019-06-27T05:47:07.330Z,24.30
2019-06-27T05:49:35.529Z,24.30
2019-06-27T05:52:02.867Z,24.30
2019-06-27T05:54:31.016Z,24.30
2019-06-27T05:56:58.707Z,24.20
2019-06-27T05:59:26.266Z,24.30
2019-06-27T06:01:53.692Z,24.20
2019-06-27T06:04:24.146Z,24.20
2019-06-27T06:06:52.795Z,24.20
2019-06-27T06:09:20.561Z,24.20
2019-06-27T06:11:48.379Z,24.20
2019-06-27T06:14:16.806Z,24.20
2019-06-27T06:16:44.067Z,24.20
2019-06-27T06:19:11.535Z,24.20
2019-06-27T06:21:39.546Z,24.20
2019-06-27T06:24:08.093Z,24.10
2019-06-27T06:26:35.600Z,24.20
2019-06-27T06:29:03.164Z,24.10
2019-06-27T06:31:30.787Z,24.10
2019-06-27T06:33:58.054Z,24.10
2019-06-27T06:36:25.190Z,24.10
2019-06-27T06:38:52.312Z,24.10
2019-06-27T06:41:20.337Z,24.10
2019-06-27T06:43:48.731Z,24.10
2019-06-27T06:46:17.793Z,24.10
2019-06-27T06:48:47.422Z,24.10
2019-06-27T06:51:14.862Z,24.10
2019-06-27T06:53:43.158Z,24.10
2019-06-27T06:56:12.202Z,23.80
2019-06-27T06:58:40.663Z,24.20
2019-06-27T07:01:11.286Z,24.20
2019-06-27T07:06:21.830Z,24.20
2019-06-27T07:08:49.577Z,24.20
2019-06-27T07:11:17.888Z,24.20
2019-06-27T07:13:45.656Z,24.20
2019-06-27T07:16:13.463Z,24.20
2019-06-27T07:18:41.198Z,24.20
2019-06-27T07:21:09.273Z,24.20
2019-06-27T07:23:37.472Z,24.20
2019-06-27T07:26:04.725Z,24.10
2019-06-27T07:28:33.059Z,24.20
2019-06-27T07:31:13.648Z,24.20
2019-06-27T07:33:30.304Z,24.10
2019-06-27T07:35:57.642Z,24.20
2019-06-27T07:38:25.198Z,24.20
2019-06-27T07:40:52.814Z,24.30
2019-06-27T07:43:20.747Z,24.30
2019-06-27T07:45:48.505Z,24.30
2019-06-27T07:48:16.148Z,24.30
2019-06-27T07:50:44.700Z,24.30
2019-06-27T07:53:11.906Z,24.30
2019-06-27T07:55:38.975Z,24.30
2019-06-27T07:58:07.498Z,24.30
2019-06-27T08:00:34.795Z,24.30
2019-06-27T08:03:02.626Z,24.10
2019-06-27T08:05:30.660Z,24.10
2019-06-27T08:07:58.248Z,24.00
2019-06-27T08:10:25.911Z,24.00
2019-06-27T08:12:53.897Z,24.00
2019-06-27T08:15:21.601Z,24.00
2019-06-27T08:17:49.345Z,24.00
2019-06-27T08:20:17.639Z,24.10
2019-06-27T08:22:46.329Z,24.10
2019-06-27T08:25:14.382Z,24.10
2019-06-27T08:27:41.979Z,24.10
2019-06-27T08:30:10.031Z,24.10
2019-06-27T08:32:37.803Z,24.20
2019-06-27T08:35:09.015Z,24.20
2019-06-27T08:37:36.363Z,24.20
2019-06-27T08:40:05.086Z,24.30
2019-06-27T08:42:32.946Z,24.30
2019-06-27T08:45:00.372Z,24.30
2019-06-27T08:47:27.803Z,24.30
2019-06-27T08:49:55.310Z,24.30
2019-06-27T08:52:22.713Z,24.20
2019-06-27T08:54:50.146Z,24.20
2019-06-27T08:57:18.047Z,24.20
2019-06-27T08:59:45.692Z,24.20
2019-06-27T09:02:13.450Z,24.20
2019-06-27T09:04:40.731Z,24.20
2019-06-27T09:07:08.033Z,24.20
2019-06-27T09:09:35.847Z,24.30
2019-06-27T09:12:03.673Z,24.30
2019-06-27T09:14:31.532Z,24.30
2019-06-27T09:16:59.907Z,24.20
2019-06-27T09:19:28.630Z,24.20
2019-06-27T09:21:56.275Z,24.20
2019-06-27T09:24:24.088Z,24.30
2019-06-27T09:26:51.774Z,24.30
2019-06-27T09:29:19.596Z,24.30
2019-06-27T09:31:47.036Z,24.30
2019-06-27T09:34:14.568Z,24.30
2019-06-27T09:36:41.908Z,24.30
2019-06-27T09:39:09.064Z,24.30
2019-06-27T09:41:36.214Z,24.30
2019-06-27T09:44:04.031Z,24.30
2019-06-27T09:46:31.734Z,24.30
2019-06-27T09:48:59.255Z,24.30
2019-06-27T09:51:27.305Z,24.30
2019-06-27T09:53:54.771Z,24.30
2019-06-27T09:56:22.152Z,24.10
2019-06-27T09:58:49.557Z,24.30
2019-06-27T10:01:17.394Z,24.30
2019-06-27T10:03:45.745Z,24.30
2019-06-27T10:06:13.289Z,24.40
2019-06-27T10:08:40.987Z,24.40
2019-06-27T10:11:08.726Z,24.40
2019-06-27T10:13:36.894Z,24.40
2019-06-27T10:16:04.262Z,24.50
2019-06-27T10:18:31.418Z,24.40
2019-06-27T10:20:59.052Z,24.50
2019-06-27T10:23:26.768Z,24.60
2019-06-27T10:25:54.458Z,24.50
2019-06-27T10:28:21.856Z,24.80
2019-06-27T10:30:49.547Z,24.40
2019-06-27T10:33:16.932Z,24.40
2019-06-27T10:35:45.386Z,24.30
2019-06-27T10:38:13.038Z,24.30
2019-06-27T10:40:40.680Z,24.30
2019-06-27T10:43:08.139Z,24.30
2019-06-27T10:45:35.731Z,24.30
2019-06-27T10:48:02.977Z,24.30
2019-06-27T10:50:31.025Z,24.30
2019-06-27T10:52:59.646Z,24.30
2019-06-27T10:55:27.087Z,24.30
2019-06-27T10:57:54.606Z,24.30
2019-06-27T11:00:21.932Z,24.40
2019-06-27T11:02:49.403Z,24.50
2019-06-27T11:05:16.861Z,24.50
2019-06-27T11:07:44.312Z,24.50
2019-06-27T11:10:11.917Z,24.50
2019-06-27T11:12:39.401Z,24.60
2019-06-27T11:15:07.403Z,24.50
2019-06-27T11:17:34.927Z,24.60
2019-06-27T11:20:03.428Z,24.60
2019-06-27T11:22:31.718Z,24.60
2019-06-27T11:24:59.385Z,24.70
2019-06-27T11:27:27.551Z,24.70
2019-06-27T11:29:55.083Z,24.70
2019-06-27T11:32:22.553Z,24.80
2019-06-27T11:34:50.022Z,24.90
2019-06-27T11:37:17.221Z,24.90
2019-06-27T11:39:44.927Z,25.00
2019-06-27T11:42:12.200Z,25.00
2019-06-27T11:44:39.487Z,25.10
2019-06-27T11:47:07.280Z,25.10
2019-06-27T11:49:34.755Z,25.20
2019-06-27T11:52:02.155Z,25.20
2019-06-27T11:54:30.265Z,25.20
2019-06-27T11:56:58.101Z,25.30
2019-06-27T11:59:25.634Z,25.30
2019-06-27T12:01:53.610Z,25.30
2019-06-27T12:04:20.821Z,25.40
2019-06-27T12:06:48.476Z,25.30
2019-06-27T12:09:15.746Z,25.40
2019-06-27T12:11:42.946Z,25.40
2019-06-27T12:14:10.870Z,25.40
2019-06-27T12:16:38.371Z,25.40
2019-06-27T12:19:06.095Z,25.50
2019-06-27T12:21:33.530Z,25.40
2019-06-27T12:24:00.919Z,25.40
2019-06-27T12:26:28.286Z,25.40
2019-06-27T12:28:55.694Z,25.50
2019-06-27T12:31:23.324Z,25.50
2019-06-27T12:34:05.683Z,25.50
2019-06-27T12:36:19.929Z,25.50
2019-06-27T12:38:47.497Z,25.60
2019-06-27T12:41:15.015Z,25.60
2019-06-27T12:43:42.552Z,25.60
2019-06-27T12:46:10.155Z,25.60
2019-06-27T12:48:37.973Z,25.70
2019-06-27T12:51:05.829Z,25.70
2019-06-27T12:53:34.151Z,25.70
2019-06-27T12:56:01.821Z,25.70
2019-06-27T12:58:29.835Z,25.80
2019-06-27T13:00:57.584Z,25.80
2019-06-27T13:03:25.070Z,25.80
2019-06-27T13:05:52.366Z,25.90
2019-06-27T13:08:22.474Z,25.80
2019-06-27T13:10:49.981Z,25.90
2019-06-27T13:13:17.417Z,25.90
2019-06-27T13:15:44.835Z,26.00
2019-06-27T13:18:12.513Z,26.10
2019-06-27T13:20:56.553Z,26.10
2019-06-27T13:23:10.709Z,26.10
2019-06-27T13:25:38.099Z,26.20
2019-06-27T13:28:05.967Z,26.30
2019-06-27T13:30:33.404Z,26.30
2019-06-27T13:33:01.370Z,26.30
2019-06-27T13:35:28.656Z,26.30
2019-06-27T13:37:57.030Z,26.30
2019-06-27T13:40:24.436Z,26.30
2019-06-27T13:42:55.455Z,26.40
2019-06-27T13:45:21.008Z,26.30
2019-06-27T13:47:48.648Z,26.30
2019-06-27T13:50:16.572Z,26.30
2019-06-27T13:52:44.584Z,26.30
2019-06-27T13:55:12.445Z,26.40
2019-06-27T13:57:39.758Z,26.40
2019-06-27T14:00:09.052Z,26.50
2019-06-27T14:02:37.286Z,26.50
2019-06-27T14:05:04.811Z,26.60
2019-06-27T14:07:32.410Z,26.60
2019-06-27T14:10:00.730Z,26.70
2019-06-27T14:12:28.781Z,26.70
2019-06-27T14:15:00.124Z,26.70
2019-06-27T14:17:27.890Z,26.70
2019-06-27T14:19:57.333Z,26.80
2019-06-27T14:22:33.596Z,26.80
2019-06-27T14:24:57.000Z,26.90
2019-06-27T14:27:24.646Z,26.90
2019-06-27T14:29:52.368Z,26.90
2019-06-27T14:32:20.157Z,27.00
2019-06-27T14:34:47.849Z,27.10
2019-06-27T14:37:15.133Z,27.10
2019-06-27T14:39:42.390Z,27.20
2019-06-27T14:42:09.942Z,27.30
2019-06-27T14:44:37.489Z,27.30
2019-06-27T14:47:05.575Z,27.40
2019-06-27T14:49:33.035Z,27.40
2019-06-27T14:52:00.541Z,27.50
2019-06-27T14:54:27.825Z,27.90
2019-06-27T14:56:56.099Z,27.70
2019-06-27T14:59:23.249Z,27.90
2019-06-27T15:01:50.587Z,28.20
2019-06-27T15:04:17.980Z,28.40
2019-06-27T15:06:45.631Z,28.60
2019-06-27T15:09:13.227Z,28.90
2019-06-27T15:11:40.598Z,29.20
2019-06-27T15:14:08.216Z,29.20
2019-06-27T15:16:35.821Z,29.60
2019-06-27T15:19:03.122Z,30.00
2019-06-27T15:21:30.467Z,30.30
2019-06-27T15:23:57.694Z,30.80
2019-06-27T15:26:25.423Z,31.30
2019-06-27T15:29:07.159Z,31.80
2019-06-27T15:31:37.188Z,32.20
2019-06-27T15:34:05.014Z,32.30
2019-06-27T15:36:33.862Z,32.60
2019-06-27T15:39:01.470Z,33.00
2019-06-27T15:41:29.274Z,32.90
2019-06-27T15:43:56.901Z,33.00
2019-06-27T15:46:24.550Z,33.50
2019-06-27T15:48:52.534Z,33.90
2019-06-27T15:51:19.933Z,34.30
2019-06-27T15:53:47.734Z,34.40
2019-06-27T15:56:15.370Z,34.60
2019-06-27T15:58:42.575Z,34.70
2019-06-27T16:01:10.113Z,34.70
2019-06-27T16:03:37.838Z,34.80
2019-06-27T16:06:09.687Z,34.70
2019-06-27T16:08:34.817Z,34.80
2019-06-27T16:11:02.343Z,34.80
2019-06-27T16:13:29.922Z,34.90
2019-06-27T16:15:57.702Z,34.80
2019-06-27T16:18:25.132Z,34.50
2019-06-27T16:20:52.903Z,34.30
2019-06-27T16:23:20.642Z,33.90
2019-06-27T16:25:47.901Z,33.70
2019-06-27T16:28:15.804Z,33.40
2019-06-27T16:30:43.729Z,33.10
2019-06-27T16:33:11.035Z,32.90
2019-06-27T16:35:38.374Z,32.70
2019-06-27T16:38:05.734Z,32.60
2019-06-27T16:40:33.369Z,32.20
2019-06-27T16:43:01.008Z,32.10
2019-06-27T16:45:28.400Z,32.00
2019-06-27T16:47:56.014Z,31.90
2019-06-27T16:50:23.771Z,31.80
2019-06-27T16:52:51.031Z,31.70
2019-06-27T16:55:18.482Z,31.70
2019-06-27T16:57:46.011Z,31.70
2019-06-27T17:00:13.940Z,31.50
2019-06-27T17:02:41.626Z,31.20
2019-06-27T17:05:08.987Z,31.10
2019-06-27T17:07:36.282Z,30.90
2019-06-27T17:10:04.750Z,30.80
2019-06-27T17:12:32.599Z,30.80
2019-06-27T17:15:00.027Z,30.60
2019-06-27T17:17:27.365Z,30.60
2019-06-27T17:19:55.226Z,30.50
2019-06-27T17:22:22.480Z,30.40
2019-06-27T17:24:49.881Z,30.30
2019-06-27T17:27:17.249Z,30.20
2019-06-27T17:29:45.048Z,30.10
2019-06-27T17:32:12.515Z,30.00
2019-06-27T17:34:40.217Z,30.00
2019-06-27T17:37:07.512Z,29.80
2019-06-27T17:39:35.003Z,29.60
2019-06-27T17:42:03.124Z,29.40
2019-06-27T17:44:30.957Z,29.20
2019-06-27T17:46:58.426Z,29.10
2019-06-27T17:49:25.450Z,29.10
2019-06-27T17:51:52.934Z,29.00
2019-06-27T17:54:20.666Z,28.80
2019-06-27T17:56:47.850Z,28.70
2019-06-27T17:59:15.825Z,28.50
2019-06-27T18:01:43.420Z,28.40
2019-06-27T18:04:10.778Z,28.30
2019-06-27T18:06:38.258Z,28.20
2019-06-27T18:09:05.538Z,28.20
2019-06-27T18:11:32.833Z,28.10
2019-06-27T18:14:00.047Z,28.10
2019-06-27T18:16:27.759Z,28.00
2019-06-27T18:18:55.641Z,28.00
2019-06-27T18:21:23.046Z,28.00
2019-06-27T18:23:50.552Z,27.90
2019-06-27T18:26:18.632Z,27.90
2019-06-27T18:28:46.127Z,27.90
2019-06-27T18:31:13.535Z,27.90
2019-06-27T18:33:41.522Z,27.90
2019-06-27T18:36:09.324Z,27.90
2019-06-27T18:38:36.530Z,27.80
2019-06-27T18:41:03.738Z,27.80
2019-06-27T18:43:30.811Z,27.80
2019-06-27T18:45:58.405Z,27.70
2019-06-27T18:48:26.810Z,27.60
2019-06-27T18:50:54.759Z,27.50
2019-06-27T18:53:22.331Z,27.50
2019-06-27T18:55:49.946Z,27.50
2019-06-27T18:58:17.580Z,27.50
2019-06-27T19:00:44.875Z,27.50
2019-06-27T19:03:12.038Z,27.50
2019-06-27T19:05:39.452Z,27.10
2019-06-27T19:08:07.671Z,27.40
2019-06-27T19:10:35.347Z,27.40
2019-06-27T19:13:02.713Z,27.30
2019-06-27T19:15:30.377Z,27.30
2019-06-27T19:17:58.094Z,27.30
2019-06-27T19:20:33.775Z,27.30
2019-06-27T19:23:19.660Z,27.20
2019-06-27T19:25:48.222Z,27.20
2019-06-27T19:28:15.787Z,27.20
2019-06-27T19:30:43.062Z,27.20
2019-06-27T19:33:10.583Z,27.10
2019-06-27T19:35:38.376Z,27.10
2019-06-27T19:38:05.679Z,27.10
2019-06-27T19:40:33.541Z,27.00
2019-06-27T19:43:01.311Z,27.10
2019-06-27T19:45:28.759Z,27.00
2019-06-27T19:47:56.531Z,27.00
2019-06-27T19:50:23.853Z,26.90
2019-06-27T19:52:51.786Z,26.90
2019-06-27T19:55:19.128Z,26.80
2019-06-27T19:57:46.953Z,26.80
2019-06-27T20:00:15.983Z,26.70
2019-06-27T20:02:44.006Z,26.60
2019-06-27T20:05:12.351Z,26.60
2019-06-27T20:07:39.635Z,26.60
2019-06-27T20:10:07.261Z,26.50
2019-06-27T20:12:35.040Z,26.50
2019-06-27T20:15:02.578Z,26.50
2019-06-27T20:17:29.951Z,26.40
2019-06-27T20:19:57.270Z,26.30
2019-06-27T20:22:24.970Z,26.20
2019-06-27T20:24:52.586Z,26.20
2019-06-27T20:27:20.607Z,26.20
2019-06-27T20:29:47.794Z,26.10
2019-06-27T20:32:16.339Z,26.20
2019-06-27T20:34:44.422Z,26.10
2019-06-27T20:37:11.922Z,26.10
2019-06-27T20:39:39.258Z,26.10
2019-06-27T20:42:06.538Z,26.10
2019-06-27T20:44:34.047Z,26.10
2019-06-27T20:47:01.759Z,26.10
2019-06-27T20:49:28.891Z,26.00
2019-06-27T20:51:56.165Z,26.00
2019-06-27T20:54:23.675Z,26.00
2019-06-27T20:56:51.108Z,26.00
2019-06-27T20:59:18.789Z,25.90
2019-06-27T21:01:46.535Z,25.90
2019-06-27T21:04:13.529Z,25.90
2019-06-27T21:06:41.314Z,25.90
2019-06-27T21:09:08.490Z,25.90
2019-06-27T21:11:36.163Z,25.90
2019-06-27T21:14:03.568Z,25.80
2019-06-27T21:16:31.042Z,25.80
2019-06-27T21:18:58.899Z,25.80
2019-06-27T21:21:26.442Z,25.80
2019-06-27T21:23:53.805Z,25.70
2019-06-27T21:26:21.151Z,25.80
2019-06-27T21:28:48.447Z,25.70
2019-06-27T21:31:16.084Z,25.70
2019-06-27T21:33:43.435Z,25.70
2019-06-27T21:36:10.873Z,25.70
2019-06-27T21:38:38.239Z,25.70
2019-06-27T21:41:05.916Z,25.70
2019-06-27T21:43:33.191Z,25.60
2019-06-27T21:46:00.763Z,25.60
2019-06-27T21:48:27.823Z,25.60
2019-06-27T21:50:55.229Z,25.60
2019-06-27T21:53:22.468Z,25.60
2019-06-27T21:55:49.913Z,25.60
2019-06-27T21:58:16.975Z,25.50
2019-06-27T22:00:44.723Z,25.50
2019-06-27T22:03:12.247Z,25.50
2019-06-27T22:05:39.770Z,25.40
2019-06-27T22:08:07.224Z,25.40
2019-06-27T22:10:34.564Z,25.40
2019-06-27T22:13:02.295Z,25.40
2019-06-27T22:15:30.312Z,25.40
2019-06-27T22:17:57.838Z,25.30
2019-06-27T22:20:25.103Z,25.30
2019-06-27T22:22:52.431Z,25.30
2019-06-27T22:25:19.775Z,25.30
2019-06-27T22:27:47.034Z,25.30
2019-06-27T22:30:14.606Z,25.20
2019-06-27T22:32:42.201Z,25.20
2019-06-27T22:35:09.922Z,25.20
2019-06-27T22:37:36.972Z,25.20
2019-06-27T22:40:22.750Z,25.10
2019-06-27T22:43:07.959Z,25.10
2019-06-27T22:45:52.886Z,25.10
2019-06-27T22:48:20.653Z,25.10
2019-06-27T22:51:07.730Z,25.10
2019-06-27T22:53:40.457Z,25.00
2019-06-27T22:56:07.686Z,25.00
2019-06-27T22:58:35.040Z,25.00
2019-06-27T23:01:03.619Z,25.00
2019-06-27T23:03:31.163Z,25.00
2019-06-27T23:05:58.416Z,24.90
2019-06-27T23:08:25.619Z,24.90
2019-06-27T23:10:52.941Z,24.90
2019-06-27T23:13:20.504Z,24.80
2019-06-27T23:15:47.838Z,24.80
2019-06-27T23:18:15.417Z,24.80
2019-06-27T23:20:43.136Z,24.80
2019-06-27T23:23:10.621Z,24.80
2019-06-27T23:25:37.949Z,24.70
2019-06-27T23:28:05.215Z,24.70
2019-06-27T23:30:33.150Z,24.70
2019-06-27T23:33:00.697Z,24.70
2019-06-27T23:35:27.864Z,24.60
2019-06-27T23:37:54.951Z,24.60
2019-06-27T23:40:22.324Z,24.60
2019-06-27T23:42:49.641Z,24.50
2019-06-27T23:45:35.385Z,24.50
2019-06-27T23:48:02.675Z,24.50
2019-06-27T23:50:30.064Z,24.50
2019-06-27T23:52:57.601Z,24.40
2019-06-27T23:55:24.763Z,24.40
2019-06-27T23:57:52.211Z,24.40
